createdAt,value
2023-11-03T00:00:24.786Z,7.03
2023-11-03T00:02:51.749Z,7.00
2023-11-03T00:05:18.994Z,6.99
2023-11-03T00:07:45.968Z,7.00
2023-11-03T00:10:12.942Z,7.03
2023-11-03T00:12:41.365Z,6.99
2023-11-03T00:15:08.507Z,6.96
2023-11-03T00:17:35.447Z,6.90
2023-11-03T00:20:02.527Z,6.88
2023-11-03T00:22:29.555Z,6.85
2023-11-03T00:24:56.659Z,6.82
2023-11-03T00:27:23.714Z,6.76
2023-11-03T00:29:52.093Z,6.71
2023-11-03T00:32:19.091Z,6.63
2023-11-03T00:34:46.098Z,6.62
2023-11-03T00:37:13.072Z,6.54
2023-11-03T00:39:40.300Z,6.45
2023-11-03T00:42:07.348Z,6.40
2023-11-03T00:44:34.353Z,6.32
2023-11-03T00:47:02.702Z,6.27
2023-11-03T00:49:29.684Z,6.21
2023-11-03T00:51:56.879Z,6.18
2023-11-03T00:54:24.153Z,6.19
2023-11-03T00:56:51.095Z,6.21
2023-11-03T00:59:18.290Z,6.21
2023-11-03T01:01:45.332Z,6.18
2023-11-03T01:04:13.703Z,6.22
2023-11-03T01:06:40.804Z,6.23
2023-11-03T01:09:07.810Z,6.26
2023-11-03T01:11:34.778Z,6.28
2023-11-03T01:14:01.738Z,6.27
2023-11-03T01:16:28.724Z,6.27
2023-11-03T01:18:55.985Z,6.27
2023-11-03T01:21:24.406Z,6.29
2023-11-03T01:23:51.329Z,6.34
2023-11-03T01:26:18.269Z,6.40
2023-11-03T01:28:45.244Z,6.46
2023-11-03T01:31:12.284Z,6.53
2023-11-03T01:33:40.018Z,6.60
2023-11-03T01:36:07.577Z,6.71
2023-11-03T01:38:36.149Z,6.79
2023-11-03T01:41:03.654Z,6.86
2023-11-03T01:43:30.888Z,6.92
2023-11-03T01:45:57.882Z,6.96
2023-11-03T01:48:25.739Z,7.05
2023-11-03T01:50:52.863Z,7.08
2023-11-03T01:53:19.907Z,7.09
2023-11-03T01:55:48.329Z,7.14
2023-11-03T01:58:16.374Z,7.22
2023-11-03T02:00:43.375Z,7.25
2023-11-03T02:03:10.358Z,7.30
2023-11-03T02:05:37.391Z,7.30
2023-11-03T02:08:04.639Z,7.33
2023-11-03T02:10:31.600Z,7.37
2023-11-03T02:12:59.949Z,7.38
2023-11-03T02:15:26.919Z,7.41
2023-11-03T02:17:53.918Z,7.44
2023-11-03T02:20:20.915Z,7.46
2023-11-03T02:22:53.529Z,7.47
2023-11-03T02:25:20.512Z,7.51
2023-11-03T02:27:47.524Z,7.53
2023-11-03T02:30:14.565Z,7.52
2023-11-03T02:32:41.657Z,7.55
2023-11-03T02:35:08.907Z,7.57
2023-11-03T02:37:36.043Z,7.62
2023-11-03T02:40:04.949Z,7.62
2023-11-03T02:42:31.892Z,7.62
2023-11-03T02:44:58.860Z,7.65
2023-11-03T02:47:25.820Z,7.67
2023-11-03T02:49:52.789Z,7.67
2023-11-03T02:52:19.741Z,7.73
2023-11-03T02:54:46.724Z,7.73
2023-11-03T02:57:15.056Z,7.67
2023-11-03T02:59:44.344Z,7.74
2023-11-03T03:02:11.312Z,7.71
2023-11-03T03:04:38.357Z,7.74
2023-11-03T03:07:05.414Z,7.76
2023-11-03T03:09:32.371Z,7.77
2023-11-03T03:11:59.350Z,7.79
2023-11-03T03:14:27.651Z,7.84
2023-11-03T03:16:54.581Z,7.85
2023-11-03T03:19:21.554Z,7.89
2023-11-03T03:21:48.530Z,7.90
2023-11-03T03:24:15.475Z,7.92
2023-11-03T03:26:42.428Z,7.92
2023-11-03T03:29:09.355Z,7.92
2023-11-03T03:31:37.674Z,7.89
2023-11-03T03:34:05.073Z,7.89
2023-11-03T03:36:32.073Z,7.89
2023-11-03T03:38:58.979Z,7.91
2023-11-03T03:41:25.948Z,7.91
2023-11-03T03:43:52.902Z,7.90
2023-11-03T03:46:19.894Z,7.92
2023-11-03T03:48:49.522Z,7.91
2023-11-03T03:51:16.564Z,7.86
2023-11-03T03:53:43.513Z,7.80
2023-11-03T03:56:10.523Z,7.85
2023-11-03T03:58:38.220Z,7.87
2023-11-03T04:01:05.637Z,7.84
2023-11-03T04:03:32.596Z,7.87
2023-11-03T04:06:00.960Z,7.89
2023-11-03T04:08:27.926Z,7.90
2023-11-03T04:10:54.887Z,7.93
2023-11-03T04:13:21.810Z,7.91
2023-11-03T04:15:48.806Z,7.93
2023-11-03T04:18:15.881Z,7.90
2023-11-03T04:20:42.940Z,7.85
2023-11-03T04:23:11.650Z,7.90
2023-11-03T04:25:38.590Z,7.91
2023-11-03T04:28:06.322Z,7.91
2023-11-03T04:30:34.049Z,7.92
2023-11-03T04:33:01.120Z,7.94
2023-11-03T04:35:28.162Z,7.96
2023-11-03T04:37:55.408Z,7.97
2023-11-03T04:40:23.713Z,8.00
2023-11-03T04:42:50.697Z,7.99
2023-11-03T04:45:17.918Z,8.01
2023-11-03T04:47:45.010Z,7.95
2023-11-03T04:50:12.098Z,7.96
2023-11-03T04:52:39.101Z,7.98
2023-11-03T04:55:06.470Z,7.97
2023-11-03T04:57:34.807Z,7.95
2023-11-03T05:00:02.020Z,7.99
2023-11-03T05:02:29.024Z,8.00
2023-11-03T05:04:58.652Z,8.02
2023-11-03T05:07:25.984Z,8.02
2023-11-03T05:09:53.283Z,8.03
2023-11-03T05:12:20.511Z,8.04
2023-11-03T05:14:48.995Z,8.01
2023-11-03T05:17:16.495Z,8.01
2023-11-03T05:19:44.184Z,8.00
2023-11-03T05:22:11.402Z,8.01
2023-11-03T05:24:39.207Z,7.99
2023-11-03T05:27:06.873Z,7.91
2023-11-03T05:29:33.841Z,7.89
2023-11-03T05:32:02.140Z,7.86
2023-11-03T05:34:29.338Z,7.80
2023-11-03T05:36:56.390Z,7.73
2023-11-03T05:39:23.347Z,7.68
2023-11-03T05:41:50.255Z,7.71
2023-11-03T05:44:17.206Z,7.72
2023-11-03T05:46:44.177Z,7.69
2023-11-03T05:49:12.556Z,7.67
2023-11-03T05:51:39.609Z,7.65
2023-11-03T05:54:06.606Z,7.73
2023-11-03T05:56:33.916Z,7.74
2023-11-03T05:59:03.767Z,7.67
2023-11-03T06:01:32.093Z,7.71
2023-11-03T06:03:59.799Z,7.66
2023-11-03T06:06:28.835Z,7.68
2023-11-03T06:08:56.197Z,7.64
2023-11-03T06:11:23.667Z,7.66
2023-11-03T06:13:51.246Z,7.66
2023-11-03T06:16:19.873Z,7.73
2023-11-03T06:18:47.833Z,7.66
2023-11-03T06:21:15.806Z,7.75
2023-11-03T06:23:44.371Z,7.72
2023-11-03T06:26:12.425Z,7.73
2023-11-03T06:28:40.092Z,7.70
2023-11-03T06:31:07.611Z,7.70
2023-11-03T06:33:35.099Z,7.75
2023-11-03T06:36:02.287Z,7.79
2023-11-03T06:38:29.686Z,7.77
2023-11-03T06:40:58.619Z,7.78
2023-11-03T06:43:26.020Z,7.83
2023-11-03T06:45:53.518Z,7.78
2023-11-03T06:48:20.996Z,7.79
2023-11-03T06:50:48.994Z,7.78
2023-11-03T06:53:16.689Z,7.82
2023-11-03T06:55:43.993Z,7.90
2023-11-03T06:58:13.216Z,7.89
2023-11-03T07:00:40.527Z,7.92
2023-11-03T07:03:07.853Z,7.99
2023-11-03T07:05:35.270Z,8.00
2023-11-03T07:08:02.575Z,7.94
2023-11-03T07:10:30.102Z,7.93
2023-11-03T07:12:57.434Z,8.01
2023-11-03T07:15:26.535Z,8.09
2023-11-03T07:17:57.405Z,8.10
2023-11-03T07:20:29.015Z,8.16
2023-11-03T07:22:56.108Z,8.06
2023-11-03T07:25:23.655Z,8.10
2023-11-03T07:27:51.598Z,8.19
2023-11-03T07:30:19.368Z,8.24
2023-11-03T07:32:48.418Z,8.23
2023-11-03T07:35:15.972Z,8.26
2023-11-03T07:37:43.554Z,8.32
2023-11-03T07:40:12.225Z,8.39
2023-11-03T07:42:39.609Z,8.46
2023-11-03T07:45:08.001Z,8.49
2023-11-03T07:47:35.436Z,8.52
2023-11-03T07:50:04.834Z,8.57
2023-11-03T07:52:32.139Z,8.62
2023-11-03T07:54:59.442Z,8.62
2023-11-03T07:57:26.739Z,8.61
2023-11-03T07:59:54.208Z,8.59
2023-11-03T08:02:22.977Z,8.58
2023-11-03T08:04:49.975Z,8.51
2023-11-03T08:07:19.298Z,8.57
2023-11-03T08:09:46.986Z,8.58
2023-11-03T08:12:14.528Z,8.63
2023-11-03T08:14:42.130Z,8.59
2023-11-03T08:17:09.386Z,8.64
2023-11-03T08:19:36.736Z,8.66
2023-11-03T08:22:04.103Z,8.70
2023-11-03T08:24:32.763Z,8.66
2023-11-03T08:26:59.682Z,8.62
2023-11-03T08:29:27.170Z,8.71
2023-11-03T08:31:54.430Z,8.69
2023-11-03T08:34:22.083Z,8.75
2023-11-03T08:36:49.347Z,8.78
2023-11-03T08:39:24.244Z,8.81
2023-11-03T08:41:59.063Z,8.73
2023-11-03T08:44:26.359Z,8.79
2023-11-03T08:46:54.120Z,8.78
2023-11-03T08:49:21.565Z,8.86
2023-11-03T08:51:49.077Z,8.81
2023-11-03T08:54:16.529Z,8.81
2023-11-03T08:56:44.086Z,8.87
2023-11-03T08:59:12.790Z,8.87
2023-11-03T09:01:40.156Z,8.97
2023-11-03T09:04:07.889Z,8.88
2023-11-03T09:06:35.171Z,8.90
2023-11-03T09:09:02.415Z,8.96
2023-11-03T09:11:29.831Z,9.03
2023-11-03T09:13:57.696Z,8.95
2023-11-03T09:16:26.664Z,9.03
2023-11-03T09:18:53.983Z,9.21
2023-11-03T09:21:21.450Z,9.30
2023-11-03T09:23:52.254Z,9.34
2023-11-03T09:26:20.020Z,9.43
2023-11-03T09:28:47.714Z,9.32
2023-11-03T09:31:15.249Z,9.47
2023-11-03T09:33:44.274Z,9.51
2023-11-03T09:36:11.759Z,9.62
2023-11-03T09:38:39.257Z,9.64
2023-11-03T09:41:08.949Z,9.72
2023-11-03T09:43:36.427Z,9.69
2023-11-03T09:46:04.351Z,9.71
2023-11-03T09:48:33.512Z,9.61
2023-11-03T09:51:02.630Z,9.63
2023-11-03T09:53:31.178Z,9.68
2023-11-03T09:56:00.674Z,9.66
2023-11-03T09:58:27.910Z,9.71
2023-11-03T10:00:55.288Z,9.70
2023-11-03T10:03:22.385Z,9.80
2023-11-03T10:05:49.834Z,9.84
2023-11-03T10:08:18.517Z,9.79
2023-11-03T10:10:45.896Z,9.97
2023-11-03T10:13:13.339Z,9.97
2023-11-03T10:15:40.925Z,9.98
2023-11-03T10:18:08.439Z,9.91
2023-11-03T10:20:36.261Z,10.02
2023-11-03T10:23:05.024Z,9.99
2023-11-03T10:25:33.855Z,10.05
2023-11-03T10:28:02.718Z,10.20
2023-11-03T10:30:30.505Z,10.01
2023-11-03T10:32:58.136Z,10.23
2023-11-03T10:35:25.642Z,10.26
2023-11-03T10:37:52.840Z,10.22
2023-11-03T10:40:22.191Z,10.14
2023-11-03T10:42:51.584Z,10.22
2023-11-03T10:45:19.565Z,10.15
2023-11-03T10:47:53.420Z,10.37
2023-11-03T10:50:22.327Z,10.34
2023-11-03T10:52:51.473Z,10.30
2023-11-03T10:55:22.908Z,10.38
2023-11-03T10:57:52.078Z,10.26
2023-11-03T11:00:23.327Z,10.22
2023-11-03T11:02:53.980Z,9.96
2023-11-03T11:05:24.478Z,10.05
2023-11-03T11:07:55.955Z,9.92
2023-11-03T11:10:35.114Z,9.89
2023-11-03T11:13:03.935Z,9.85
2023-11-03T11:15:31.569Z,9.84
2023-11-03T11:18:04.473Z,10.05
2023-11-03T11:20:38.363Z,9.97
2023-11-03T11:23:08.991Z,10.01
2023-11-03T11:25:36.754Z,9.77
2023-11-03T11:28:05.650Z,9.84
2023-11-03T11:30:34.079Z,9.81
2023-11-03T11:33:01.613Z,9.84
2023-11-03T11:35:37.820Z,9.82
2023-11-03T11:38:05.498Z,9.84
2023-11-03T11:40:33.046Z,9.80
2023-11-03T11:43:11.455Z,9.78
2023-11-03T11:45:47.444Z,9.69
2023-11-03T11:48:16.870Z,9.74
2023-11-03T11:50:44.503Z,9.68
2023-11-03T11:53:11.883Z,9.67
2023-11-03T11:55:39.151Z,9.60
2023-11-03T11:58:07.744Z,9.60
2023-11-03T12:00:38.097Z,9.56
2023-11-03T12:03:08.816Z,9.53
2023-11-03T12:05:39.120Z,9.62
2023-11-03T12:08:07.066Z,9.66
2023-11-03T12:10:34.697Z,9.73
2023-11-03T12:13:02.623Z,9.79
2023-11-03T12:15:29.959Z,9.96
2023-11-03T12:17:57.264Z,10.07
2023-11-03T12:20:26.339Z,10.20
2023-11-03T12:22:53.709Z,10.35
2023-11-03T12:25:21.261Z,10.52
2023-11-03T12:30:20.980Z,10.78
2023-11-03T12:32:49.137Z,10.83
2023-11-03T12:35:16.715Z,10.86
2023-11-03T12:37:45.575Z,10.80
2023-11-03T12:40:22.706Z,11.00
2023-11-03T12:42:50.162Z,10.74
2023-11-03T12:45:23.235Z,10.96
2023-11-03T12:47:50.602Z,11.09
2023-11-03T12:50:19.291Z,11.17
2023-11-03T12:52:48.910Z,11.31
2023-11-03T12:55:23.274Z,11.31
2023-11-03T12:57:50.506Z,11.26
2023-11-03T13:00:17.816Z,11.50
2023-11-03T13:02:47.501Z,11.58
2023-11-03T13:05:15.183Z,11.49
2023-11-03T13:07:42.983Z,11.58
2023-11-03T13:10:11.747Z,11.34
2023-11-03T13:12:39.229Z,11.35
2023-11-03T13:15:07.062Z,11.35
2023-11-03T13:17:34.607Z,11.42
2023-11-03T13:20:01.908Z,11.42
2023-11-03T13:22:29.357Z,11.49
2023-11-03T13:24:57.090Z,11.41
2023-11-03T13:27:26.067Z,11.36
2023-11-03T13:29:53.384Z,11.48
2023-11-03T13:32:20.645Z,11.45
2023-11-03T13:34:48.295Z,11.47
2023-11-03T13:37:15.612Z,11.46
2023-11-03T13:39:43.135Z,11.47
2023-11-03T13:42:10.655Z,11.57
2023-11-03T13:44:39.174Z,11.57
2023-11-03T13:47:06.545Z,11.54
2023-11-03T13:49:35.833Z,11.28
2023-11-03T13:52:03.317Z,11.35
2023-11-03T13:54:30.746Z,11.37
2023-11-03T13:56:58.147Z,11.23
2023-11-03T13:59:25.592Z,11.12
2023-11-03T14:01:53.929Z,10.89
2023-11-03T14:04:20.909Z,10.88
2023-11-03T14:06:47.967Z,10.83
2023-11-03T14:09:15.029Z,10.77
2023-11-03T14:11:41.963Z,10.73
2023-11-03T14:14:09.022Z,10.69
2023-11-03T14:16:36.080Z,10.53
2023-11-03T14:19:04.632Z,10.48
2023-11-03T14:21:31.599Z,10.39
2023-11-03T14:23:58.556Z,10.31
2023-11-03T14:26:25.616Z,10.24
2023-11-03T14:28:52.575Z,10.19
2023-11-03T14:31:19.573Z,10.17
2023-11-03T14:33:46.708Z,10.08
2023-11-03T14:36:15.202Z,9.91
2023-11-03T14:38:42.142Z,9.90
2023-11-03T14:41:09.331Z,9.85
2023-11-03T14:43:39.263Z,9.83
2023-11-03T14:46:06.841Z,9.82
2023-11-03T14:48:34.118Z,9.69
2023-11-03T14:51:01.365Z,9.67
2023-11-03T14:53:32.294Z,9.52
2023-11-03T14:56:01.169Z,9.55
2023-11-03T14:58:28.829Z,9.50
2023-11-03T15:00:56.090Z,9.43
2023-11-03T15:03:23.597Z,9.35
2023-11-03T15:05:51.125Z,9.26
2023-11-03T15:08:18.425Z,9.21
2023-11-03T15:10:46.969Z,9.16
2023-11-03T15:13:14.568Z,9.03
2023-11-03T15:15:42.122Z,8.95
2023-11-03T15:18:09.655Z,8.82
2023-11-03T15:20:36.841Z,8.70
2023-11-03T15:23:03.836Z,8.67
2023-11-03T15:25:31.353Z,8.61
2023-11-03T15:28:00.451Z,8.47
2023-11-03T15:30:27.807Z,8.41
2023-11-03T15:32:54.866Z,8.35
2023-11-03T15:35:21.820Z,8.29
2023-11-03T15:37:48.762Z,8.23
2023-11-03T15:40:15.875Z,8.16
2023-11-03T15:42:42.954Z,8.06
2023-11-03T15:45:11.873Z,7.96
2023-11-03T15:47:39.090Z,7.89
2023-11-03T15:50:06.462Z,7.83
2023-11-03T15:52:33.500Z,7.80
2023-11-03T15:55:00.590Z,7.74
2023-11-03T15:57:27.677Z,7.70
2023-11-03T15:59:54.702Z,7.64
2023-11-03T16:02:23.235Z,7.53
2023-11-03T16:04:50.224Z,7.42
2023-11-03T16:07:17.340Z,7.32
2023-11-03T16:09:44.388Z,7.16
2023-11-03T16:12:11.319Z,7.14
2023-11-03T16:14:38.314Z,6.97
2023-11-03T16:17:05.241Z,6.87
2023-11-03T16:19:33.739Z,6.81
2023-11-03T16:22:00.767Z,6.71
2023-11-03T16:24:27.822Z,6.62
2023-11-03T16:26:54.759Z,6.47
2023-11-03T16:29:21.678Z,6.42
2023-11-03T16:31:48.656Z,6.31
2023-11-03T16:34:15.655Z,6.24
2023-11-03T16:36:44.003Z,6.20
2023-11-03T16:39:10.941Z,6.14
2023-11-03T16:41:37.923Z,6.11
2023-11-03T16:44:07.336Z,6.09
2023-11-03T16:46:35.878Z,6.05
2023-11-03T16:49:03.003Z,6.01
2023-11-03T16:51:30.011Z,5.94
2023-11-03T16:53:58.359Z,5.89
2023-11-03T16:56:25.290Z,5.83
2023-11-03T16:58:52.273Z,5.78
2023-11-03T17:01:19.392Z,5.72
2023-11-03T17:03:46.406Z,5.69
2023-11-03T17:06:13.471Z,5.68
2023-11-03T17:08:40.517Z,5.63
2023-11-03T17:11:10.890Z,5.59
2023-11-03T17:13:38.844Z,5.57
2023-11-03T17:16:06.064Z,5.53
2023-11-03T17:18:33.155Z,5.52
2023-11-03T17:21:00.111Z,5.49
2023-11-03T17:23:27.623Z,5.51
2023-11-03T17:25:54.864Z,5.48
2023-11-03T17:28:23.920Z,5.46
2023-11-03T17:30:51.462Z,5.41
2023-11-03T17:33:19.112Z,5.38
2023-11-03T17:35:46.646Z,5.32
2023-11-03T17:38:14.089Z,5.29
2023-11-03T17:40:41.184Z,5.27
2023-11-03T17:43:08.803Z,5.22
2023-11-03T17:45:37.435Z,5.21
2023-11-03T17:48:05.218Z,5.16
2023-11-03T17:50:32.510Z,5.12
2023-11-03T17:52:59.742Z,5.10
2023-11-03T17:55:27.118Z,5.05
2023-11-03T17:57:54.584Z,5.05
2023-11-03T18:00:22.450Z,5.03
2023-11-03T18:02:51.716Z,5.00
2023-11-03T18:05:19.250Z,4.98
2023-11-03T18:07:46.396Z,4.97
2023-11-03T18:10:13.978Z,4.94
2023-11-03T18:12:41.872Z,4.90
2023-11-03T18:15:10.002Z,4.90
2023-11-03T18:17:37.914Z,4.89
2023-11-03T18:20:09.806Z,4.87
2023-11-03T18:22:37.398Z,4.89
2023-11-03T18:25:05.296Z,4.91
2023-11-03T18:27:32.553Z,4.89
2023-11-03T18:29:59.792Z,4.85
2023-11-03T18:32:27.034Z,4.85
2023-11-03T18:34:54.361Z,4.83
2023-11-03T18:37:23.218Z,4.81
2023-11-03T18:39:50.487Z,4.80
2023-11-03T18:42:18.073Z,4.78
2023-11-03T18:44:45.426Z,4.77
2023-11-03T18:47:12.703Z,4.74
2023-11-03T18:52:10.477Z,4.65
2023-11-03T18:58:18.884Z,4.57
2023-11-03T19:00:25.498Z,4.53
2023-11-03T19:07:09.034Z,4.47
2023-11-03T19:08:03.493Z,4.47
2023-11-03T19:10:32.701Z,4.45
2023-11-03T19:13:00.327Z,4.39
2023-11-03T19:15:27.742Z,4.40
2023-11-03T19:17:55.034Z,4.40
2023-11-03T19:20:22.624Z,4.41
2023-11-03T19:22:50.424Z,4.39
2023-11-03T19:25:18.178Z,4.38
2023-11-03T19:27:47.816Z,4.36
2023-11-03T19:30:15.413Z,4.35
2023-11-03T19:32:42.837Z,4.35
2023-11-03T19:35:10.678Z,4.33
2023-11-03T19:37:37.706Z,4.34
2023-11-03T19:40:05.405Z,4.35
2023-11-03T19:42:32.498Z,4.35
2023-11-03T19:45:01.017Z,4.31
2023-11-03T19:47:28.052Z,4.29
2023-11-03T19:49:54.983Z,4.28
2023-11-03T19:52:22.070Z,4.28
2023-11-03T19:54:49.233Z,4.28
2023-11-03T19:57:16.358Z,4.27
2023-11-03T19:59:43.527Z,4.29
2023-11-03T20:02:11.863Z,4.29
2023-11-03T20:04:38.883Z,4.28
2023-11-03T20:07:06.861Z,4.26
2023-11-03T20:09:35.952Z,4.25
2023-11-03T20:12:03.134Z,4.25
2023-11-03T20:14:30.186Z,4.24
2023-11-03T20:16:57.253Z,4.23
2023-11-03T20:19:25.838Z,4.21
2023-11-03T20:21:52.940Z,4.19
2023-11-03T20:24:19.964Z,4.19
2023-11-03T20:26:47.035Z,4.17
2023-11-03T20:29:14.130Z,4.15
2023-11-03T20:31:41.286Z,4.15
2023-11-03T20:34:08.394Z,4.13
2023-11-03T20:36:37.021Z,4.12
2023-11-03T20:39:04.219Z,4.14
2023-11-03T20:41:31.190Z,4.15
2023-11-03T20:43:58.136Z,4.18
2023-11-03T20:46:25.165Z,4.20
2023-11-03T20:48:52.198Z,4.19
2023-11-03T20:51:19.373Z,4.23
2023-11-03T20:53:47.978Z,4.25
2023-11-03T20:56:14.965Z,4.26
2023-11-03T20:58:44.281Z,4.28
2023-11-03T21:01:11.255Z,4.28
2023-11-03T21:03:38.341Z,4.24
2023-11-03T21:06:05.540Z,4.26
2023-11-03T21:08:32.523Z,4.28
2023-11-03T21:11:00.895Z,4.28
2023-11-03T21:13:27.866Z,4.26
2023-11-03T21:15:54.872Z,4.27
2023-11-03T21:18:21.976Z,4.28
2023-11-03T21:20:49.100Z,4.24
2023-11-03T21:23:16.162Z,4.23
2023-11-03T21:25:43.131Z,4.23
2023-11-03T21:28:11.453Z,4.22
2023-11-03T21:30:38.416Z,4.21
2023-11-03T21:33:05.539Z,4.21
2023-11-03T21:35:32.606Z,4.20
2023-11-03T21:37:59.621Z,4.18
2023-11-03T21:40:26.664Z,4.18
2023-11-03T21:42:53.759Z,4.16
2023-11-03T21:45:22.172Z,4.16
2023-11-03T21:47:49.319Z,4.14
2023-11-03T21:50:16.946Z,4.12
2023-11-03T21:52:44.096Z,4.12
2023-11-03T21:55:11.072Z,4.08
2023-11-03T21:57:38.069Z,4.09
2023-11-03T22:00:05.818Z,4.07
2023-11-03T22:02:34.829Z,4.06
2023-11-03T22:05:01.993Z,4.07
2023-11-03T22:07:29.087Z,4.07
2023-11-03T22:09:56.173Z,4.05
2023-11-03T22:12:23.449Z,4.07
2023-11-03T22:14:50.699Z,4.06
2023-11-03T22:17:17.734Z,4.05
2023-11-03T22:19:46.242Z,4.00
2023-11-03T22:22:13.363Z,3.97
2023-11-03T22:24:40.401Z,3.95
2023-11-03T22:27:07.436Z,3.89
2023-11-03T22:29:35.624Z,3.91
2023-11-03T22:32:03.477Z,3.88
2023-11-03T22:34:30.819Z,3.85
2023-11-03T22:36:59.217Z,3.82
2023-11-03T22:39:26.490Z,3.80
2023-11-03T22:41:53.466Z,3.78
2023-11-03T22:44:20.459Z,3.74
2023-11-03T22:46:47.621Z,3.73
2023-11-03T22:49:14.780Z,3.74
2023-11-03T22:51:42.034Z,3.73
2023-11-03T22:54:10.381Z,3.69
2023-11-03T22:56:37.331Z,3.73
2023-11-03T22:59:04.375Z,3.70
2023-11-03T23:04:02.660Z,3.66
2023-11-03T23:06:29.660Z,3.65
2023-11-03T23:08:56.648Z,3.59
2023-11-03T23:11:25.018Z,3.59
2023-11-03T23:13:52.099Z,3.55
2023-11-03T23:16:19.188Z,3.55
2023-11-03T23:18:46.238Z,3.53
2023-11-03T23:21:13.305Z,3.50
2023-11-03T23:23:40.250Z,3.50
2023-11-03T23:26:07.209Z,3.49
2023-11-03T23:28:35.528Z,3.53
2023-11-03T23:31:02.539Z,3.56
2023-11-03T23:33:29.641Z,3.62
2023-11-03T23:35:56.693Z,3.62
2023-11-03T23:38:23.646Z,3.55
2023-11-03T23:40:50.621Z,3.55
2023-11-03T23:43:17.580Z,3.53
2023-11-03T23:45:45.931Z,3.47
2023-11-03T23:48:13.034Z,3.42
2023-11-03T23:50:40.059Z,3.36
2023-11-03T23:53:06.986Z,3.36
2023-11-03T23:55:33.958Z,3.28
2023-11-03T23:58:00.965Z,3.27
